KRNO/RNO METAR and TAF weather

Enter ICAO airport designator
Station Type Date Time Source
KRNO METAR 2021/05/14 21:55 UTC NOAA

KRNO 142155Z 26017G22KT 10SM SCT075 SCT140 BKN250 30/M07 A2989 RMK AO2 RAB27E29 SLP067 VIRGA DSNT NE AND E CCSL ALQDS P0000 T03001072


Station Type Date Time Source
KRNO Decoded METAR 2021/05/14 21:55 UTC NOAA

RENO/TAHOE INTERNATIONAL AIRPORT, NV, United States (KRNO) 39-29N 119-46W 1342M
May 14, 2021 - 05:55 PM EDT / 2021.05.14 2155 UTC
Wind: from the W (260 degrees) at 20 MPH (17 KT) gusting to 25 MPH (22 KT):0
Visibility: 10 mile(s):0
Sky conditions: mostly cloudy
Precipitation last hour: A trace
Temperature: 86.0 F (30.0 C)
Dew Point: 19.0 F (-7.2 C)
Relative Humidity: 8%
Pressure (altimeter): 29.89 in. Hg (1012 hPa)
ob: KRNO 142155Z 26017G22KT 10SM SCT075 SCT140 BKN250 30/M07 A2989 RMK AO2 RAB27E29 SLP067 VIRGA DSNT NE AND E CCSL ALQDS P0000 T03001072
cycle: 22

Station Type Date Time Source
KRNO TAF 2021/05/14 18:42 UTC NOAA

TAF KRNO 141739Z 1418/1518 VRB03KT P6SM FEW250
FM142100 25014G25KT P6SM SCT100
FM150000 28015G27KT P6SM SCT090 BKN120
FM150600 32008KT P6SM SCT080 BKN120

Example: see airport list